createdAt,value
2018-07-25T00:01:08.254Z,1008.54
2018-07-25T00:02:17.179Z,1008.54
2018-07-25T00:03:25.824Z,1008.52
2018-07-25T00:04:34.477Z,1008.53
2018-07-25T00:05:43.126Z,1008.51
2018-07-25T00:06:51.786Z,1008.53
2018-07-25T00:08:00.433Z,1008.55
2018-07-25T00:09:09.080Z,1008.56
2018-07-25T00:10:17.730Z,1008.54
2018-07-25T00:11:26.644Z,1008.54
2018-07-25T00:12:35.299Z,1008.53
2018-07-25T00:13:43.951Z,1008.54
2018-07-25T00:14:52.599Z,1008.52
2018-07-25T00:16:01.249Z,1008.52
2018-07-25T00:17:10.169Z,1008.54
2018-07-25T00:18:18.819Z,1008.53
2018-07-25T00:19:27.469Z,1008.55
2018-07-25T00:20:36.379Z,1008.55
2018-07-25T00:21:45.297Z,1008.56
2018-07-25T00:22:53.946Z,1008.56
2018-07-25T00:24:02.602Z,1008.55
2018-07-25T00:25:11.248Z,1008.56
2018-07-25T00:26:19.901Z,1008.55
2018-07-25T00:27:28.554Z,1008.55
2018-07-25T00:28:37.205Z,1008.59
2018-07-25T00:29:45.857Z,1008.57
2018-07-25T00:30:54.506Z,1008.55
2018-07-25T00:32:03.158Z,1008.54
2018-07-25T00:33:11.809Z,1008.52
2018-07-25T00:34:20.463Z,1008.51
2018-07-25T00:35:29.109Z,1008.52
2018-07-25T00:36:37.807Z,1008.52
2018-07-25T00:37:46.682Z,1008.54
2018-07-25T00:38:55.336Z,1008.54
2018-07-25T00:40:03.983Z,1008.52
2018-07-25T00:41:12.899Z,1008.51
2018-07-25T00:42:21.551Z,1008.55
2018-07-25T00:43:30.209Z,1008.52
2018-07-25T00:44:39.114Z,1008.53
2018-07-25T00:45:47.765Z,1008.52
2018-07-25T00:46:56.676Z,1008.52
2018-07-25T00:48:05.323Z,1008.54
2018-07-25T00:49:13.976Z,1008.53
2018-07-25T00:50:22.627Z,1008.55
2018-07-25T00:51:31.285Z,1008.57
2018-07-25T00:52:39.924Z,1008.55
2018-07-25T00:53:48.579Z,1008.55
2018-07-25T00:54:57.228Z,1008.54
2018-07-25T00:56:05.881Z,1008.57
2018-07-25T00:57:14.526Z,1008.58
2018-07-25T00:58:23.180Z,1008.6
2018-07-25T00:59:32.356Z,1008.58
2018-07-25T01:00:41.008Z,1008.57
2018-07-25T01:01:49.653Z,1008.56
2018-07-25T01:02:58.572Z,1008.58
2018-07-25T01:04:07.222Z,1008.56
2018-07-25T01:05:16.398Z,1008.53
2018-07-25T01:06:25.056Z,1008.58
2018-07-25T01:07:33.701Z,1008.56
2018-07-25T01:08:42.353Z,1008.55
2018-07-25T01:09:51.006Z,1008.59
2018-07-25T01:10:59.914Z,1008.59
2018-07-25T01:12:08.572Z,1008.62
2018-07-25T01:13:17.218Z,1008.6
2018-07-25T01:14:25.872Z,1008.62
2018-07-25T01:15:34.513Z,1008.61
2018-07-25T01:16:43.434Z,1008.63
2018-07-25T01:17:52.348Z,1008.62
2018-07-25T01:19:01.000Z,1008.6
2018-07-25T01:20:09.640Z,1008.61
2018-07-25T01:21:18.292Z,1008.61
2018-07-25T01:22:26.945Z,1008.64
2018-07-25T01:23:35.863Z,1008.63
2018-07-25T01:24:44.515Z,1008.61
2018-07-25T01:25:53.157Z,1008.63
2018-07-25T01:27:02.076Z,1008.66
2018-07-25T01:28:10.732Z,1008.65
2018-07-25T01:29:19.392Z,1008.66
2018-07-25T01:30:28.034Z,1008.7
2018-07-25T01:31:36.692Z,1008.68
2018-07-25T01:32:45.606Z,1008.68
2018-07-25T01:33:54.267Z,1008.71
2018-07-25T01:35:02.907Z,1008.69
2018-07-25T01:36:11.822Z,1008.72
2018-07-25T01:37:20.737Z,1008.66
2018-07-25T01:38:29.396Z,1008.66
2018-07-25T01:39:38.045Z,1008.66
2018-07-25T01:40:46.686Z,1008.65
2018-07-25T01:41:55.605Z,1008.68
2018-07-25T01:43:04.261Z,1008.7
2018-07-25T01:44:13.182Z,1008.72
2018-07-25T01:45:21.827Z,1008.76
2018-07-25T01:46:30.480Z,1008.78
2018-07-25T01:47:39.119Z,1008.73
2018-07-25T01:48:47.777Z,1008.78
2018-07-25T01:49:56.423Z,1008.75
2018-07-25T01:51:05.077Z,1008.79
2018-07-25T01:52:13.726Z,1008.78
2018-07-25T01:53:22.390Z,1008.81
2018-07-25T01:54:31.564Z,1008.81
2018-07-25T01:55:40.223Z,1008.83
2018-07-25T01:56:48.864Z,1008.86
2018-07-25T01:57:57.515Z,1008.84
2018-07-25T01:59:06.168Z,1008.79
2018-07-25T02:00:14.820Z,1008.79
2018-07-25T02:01:23.489Z,1008.79
2018-07-25T02:02:32.153Z,1008.76
2018-07-25T02:03:40.769Z,1008.76
2018-07-25T02:04:49.413Z,1008.76
2018-07-25T02:05:58.074Z,1008.79
2018-07-25T02:07:06.716Z,1008.77
2018-07-25T02:08:15.682Z,1008.79
2018-07-25T02:09:24.277Z,1008.76
2018-07-25T02:10:32.931Z,1008.75
2018-07-25T02:11:41.575Z,1008.77
2018-07-25T02:12:50.233Z,1008.75
2018-07-25T02:13:59.145Z,1008.76
2018-07-25T02:15:07.801Z,1008.79
2018-07-25T02:16:16.448Z,1008.8
2018-07-25T02:17:25.367Z,1008.79
2018-07-25T02:18:34.015Z,1008.81
2018-07-25T02:19:42.661Z,1008.83
2018-07-25T02:20:51.320Z,1008.8
2018-07-25T02:21:59.970Z,1008.82
2018-07-25T02:23:08.883Z,1008.8
2018-07-25T02:24:17.539Z,1008.82
2018-07-25T02:25:26.192Z,1008.8
2018-07-25T02:26:34.841Z,1008.84
2018-07-25T02:27:43.489Z,1008.85
2018-07-25T02:28:52.393Z,1008.83
2018-07-25T02:30:01.045Z,1008.82
2018-07-25T02:31:09.960Z,1008.83
2018-07-25T02:32:18.615Z,1008.81
2018-07-25T02:33:27.261Z,1008.81
2018-07-25T02:34:35.915Z,1008.84
2018-07-25T02:35:44.575Z,1008.84
2018-07-25T02:36:53.491Z,1008.85
2018-07-25T02:38:02.146Z,1008.85
2018-07-25T02:39:10.791Z,1008.84
2018-07-25T02:40:19.442Z,1008.83
2018-07-25T02:41:28.092Z,1008.84
2018-07-25T02:42:36.858Z,1008.88
2018-07-25T02:43:45.427Z,1008.87
2018-07-25T02:44:54.788Z,1008.88
2018-07-25T02:46:03.438Z,1008.86
2018-07-25T02:47:12.355Z,1008.86
2018-07-25T02:48:21.007Z,1008.88
2018-07-25T02:49:29.663Z,1008.87
2018-07-25T02:50:38.312Z,1008.87
2018-07-25T02:51:47.232Z,1008.86
2018-07-25T02:52:55.889Z,1008.9
2018-07-25T02:54:04.551Z,1008.88
2018-07-25T02:55:13.741Z,1008.93
2018-07-25T02:56:22.709Z,1008.93
2018-07-25T02:57:31.367Z,1008.93
2018-07-25T02:58:40.018Z,1008.93
2018-07-25T02:59:48.672Z,1008.91
2018-07-25T03:00:57.577Z,1008.95
2018-07-25T03:02:06.231Z,1008.96
2018-07-25T03:03:15.153Z,1008.96
2018-07-25T03:04:24.387Z,1008.96
2018-07-25T03:05:33.309Z,1008.97
2018-07-25T03:06:41.966Z,1008.96
2018-07-25T03:07:50.880Z,1008.95
2018-07-25T03:08:59.556Z,1009.01
2018-07-25T03:10:08.518Z,1008.97
2018-07-25T03:11:18.156Z,1008.97
2018-07-25T03:12:26.808Z,1009
2018-07-25T03:13:35.720Z,1009.01
2018-07-25T03:14:44.377Z,1009.03
2018-07-25T03:15:53.031Z,1009.01
2018-07-25T03:17:01.689Z,1009.03
2018-07-25T03:18:10.351Z,1009.04
2018-07-25T03:19:19.261Z,1009.02
2018-07-25T03:20:28.176Z,1009.04
2018-07-25T03:21:37.101Z,1009.03
2018-07-25T03:22:45.752Z,1009.03
2018-07-25T03:23:54.394Z,1009.02
2018-07-25T03:25:03.050Z,1009.02
2018-07-25T03:26:11.969Z,1009.02
2018-07-25T03:27:20.929Z,1009.03
2018-07-25T03:28:29.532Z,1009.05
2018-07-25T03:29:38.444Z,1009.02
2018-07-25T03:30:47.098Z,1008.99
2018-07-25T03:31:55.765Z,1009
2018-07-25T03:33:04.685Z,1009
2018-07-25T03:34:13.329Z,1009.05
2018-07-25T03:35:21.978Z,1008.99
2018-07-25T03:36:30.626Z,1009.01
2018-07-25T03:37:39.278Z,1009
2018-07-25T03:38:47.927Z,1008.97
2018-07-25T03:39:56.839Z,1008.99
2018-07-25T03:41:05.751Z,1008.99
2018-07-25T03:42:14.400Z,1008.98
2018-07-25T03:43:23.044Z,1009.03
2018-07-25T03:44:31.690Z,1009.01
2018-07-25T03:45:40.341Z,1009.03
2018-07-25T03:46:48.994Z,1009.05
2018-07-25T03:47:57.641Z,1009.01
2018-07-25T03:49:06.292Z,1008.98
2018-07-25T03:50:14.941Z,1009.03
2018-07-25T03:51:23.595Z,1008.98
2018-07-25T03:52:32.247Z,1008.98
2018-07-25T03:53:40.894Z,1009.03
2018-07-25T03:54:49.542Z,1009
2018-07-25T03:55:58.189Z,1009
2018-07-25T03:57:06.845Z,1008.97
2018-07-25T03:58:15.760Z,1009.01
2018-07-25T03:59:24.408Z,1009.02
2018-07-25T04:00:33.053Z,1009.01
2018-07-25T04:01:41.706Z,1009.01
2018-07-25T04:02:50.353Z,1009.04
2018-07-25T04:03:59.010Z,1009.03
2018-07-25T04:05:07.644Z,1009
2018-07-25T04:06:16.296Z,1009.02
2018-07-25T04:07:24.951Z,1009.02
2018-07-25T04:08:33.601Z,1009.02
2018-07-25T04:09:42.257Z,1009.02
2018-07-25T04:10:50.896Z,1009.02
2018-07-25T04:11:59.550Z,1009.02
2018-07-25T04:13:08.459Z,1009.04
2018-07-25T04:14:17.121Z,1009.05
2018-07-25T04:15:26.021Z,1009.06
2018-07-25T04:16:34.678Z,1009.06
2018-07-25T04:17:43.329Z,1009.06
2018-07-25T04:18:51.982Z,1009.08
2018-07-25T04:20:00.623Z,1009.08
2018-07-25T04:21:09.273Z,1009.08
2018-07-25T04:22:17.918Z,1009.09
2018-07-25T04:23:26.578Z,1009.08
2018-07-25T04:24:35.760Z,1009.09
2018-07-25T04:25:44.395Z,1009.11
2018-07-25T04:26:53.305Z,1009.1
2018-07-25T04:28:01.949Z,1009.08
2018-07-25T04:29:10.867Z,1009.1
2018-07-25T04:30:19.512Z,1009.12
2018-07-25T04:31:28.159Z,1009.11
2018-07-25T04:32:36.801Z,1009.16
2018-07-25T04:33:45.459Z,1009.14
2018-07-25T04:34:54.249Z,1009.17
2018-07-25T04:36:02.755Z,1009.18
2018-07-25T04:37:11.661Z,1009.2
2018-07-25T04:38:20.314Z,1009.2
2018-07-25T04:39:28.962Z,1009.2
2018-07-25T04:40:37.613Z,1009.23
2018-07-25T04:41:46.514Z,1009.2
2018-07-25T04:42:55.166Z,1009.23
2018-07-25T04:44:03.821Z,1009.21
2018-07-25T04:45:12.477Z,1009.23
2018-07-25T04:46:21.224Z,1009.21
2018-07-25T04:47:30.227Z,1009.22
2018-07-25T04:48:38.878Z,1009.22
2018-07-25T04:49:47.523Z,1009.22
2018-07-25T04:50:56.180Z,1009.25
2018-07-25T04:52:04.822Z,1009.25
2018-07-25T04:53:13.740Z,1009.28
2018-07-25T04:54:22.384Z,1009.29
2018-07-25T04:55:31.043Z,1009.3
2018-07-25T04:56:39.682Z,1009.29
2018-07-25T04:57:48.333Z,1009.32
2018-07-25T04:58:56.976Z,1009.31
2018-07-25T05:00:05.634Z,1009.34
2018-07-25T05:01:14.282Z,1009.36
2018-07-25T05:02:22.927Z,1009.4
2018-07-25T05:03:31.850Z,1009.35
2018-07-25T05:04:40.498Z,1009.35
2018-07-25T05:05:49.156Z,1009.37
2018-07-25T05:06:58.079Z,1009.4
2018-07-25T05:08:06.714Z,1009.37
2018-07-25T05:09:15.358Z,1009.37
2018-07-25T05:10:24.012Z,1009.44
2018-07-25T05:11:32.660Z,1009.44
2018-07-25T05:12:41.658Z,1009.44
2018-07-25T05:13:50.214Z,1009.45
2018-07-25T05:14:59.129Z,1009.47
2018-07-25T05:16:07.776Z,1009.51
2018-07-25T05:17:16.428Z,1009.51
2018-07-25T05:18:25.127Z,1009.52
2018-07-25T05:19:33.726Z,1009.51
2018-07-25T05:20:42.376Z,1009.54
2018-07-25T05:21:51.026Z,1009.55
2018-07-25T05:22:59.677Z,1009.58
2018-07-25T05:24:08.629Z,1009.59
2018-07-25T05:25:17.281Z,1009.62
2018-07-25T05:26:26.187Z,1009.62
2018-07-25T05:27:34.842Z,1009.65
2018-07-25T05:28:43.486Z,1009.67
2018-07-25T05:29:52.400Z,1009.68
2018-07-25T05:31:01.051Z,1009.71
2018-07-25T05:32:09.710Z,1009.7
2018-07-25T05:33:18.356Z,1009.73
2018-07-25T05:34:27.272Z,1009.77
2018-07-25T05:35:35.924Z,1009.79
2018-07-25T05:36:44.579Z,1009.78
2018-07-25T05:37:53.226Z,1009.78
2018-07-25T05:39:01.880Z,1009.82
2018-07-25T05:40:10.529Z,1009.81
2018-07-25T05:41:19.440Z,1009.83
2018-07-25T05:42:28.096Z,1009.88
2018-07-25T05:43:37.015Z,1009.87
2018-07-25T05:44:45.664Z,1009.9
2018-07-25T05:45:54.308Z,1009.92
2018-07-25T05:47:02.963Z,1009.92
2018-07-25T05:48:11.617Z,1009.89
2018-07-25T05:49:20.533Z,1009.94
2018-07-25T05:50:29.520Z,1009.96
2018-07-25T05:51:38.170Z,1009.95
2018-07-25T05:52:46.817Z,1009.94
2018-07-25T05:53:55.469Z,1009.93
2018-07-25T05:55:04.114Z,1009.96
2018-07-25T05:56:12.765Z,1009.94
2018-07-25T05:57:21.415Z,1009.97
2018-07-25T05:58:30.332Z,1009.97
2018-07-25T05:59:38.983Z,1009.99
2018-07-25T06:00:47.634Z,1009.98
2018-07-25T06:01:56.281Z,1010.01
2018-07-25T06:03:05.025Z,1010.01
2018-07-25T06:04:14.048Z,1010
2018-07-25T06:05:22.615Z,1010.01
2018-07-25T06:06:31.532Z,1010.05
2018-07-25T06:07:40.179Z,1010.07
2018-07-25T06:08:48.842Z,1010.09
2018-07-25T06:09:57.741Z,1010.11
2018-07-25T06:11:06.397Z,1010.14
2018-07-25T06:12:15.045Z,1010.11
2018-07-25T06:13:23.966Z,1010.1
2018-07-25T06:14:32.873Z,1010.12
2018-07-25T06:15:41.519Z,1010.1
2018-07-25T06:16:50.173Z,1010.13
2018-07-25T06:17:58.824Z,1010.11
2018-07-25T06:19:07.482Z,1010.12
2018-07-25T06:20:16.129Z,1010.17
2018-07-25T06:21:24.785Z,1010.14
2018-07-25T06:22:33.426Z,1010.14
2018-07-25T06:23:42.089Z,1010.1
2018-07-25T06:24:50.736Z,1010.09
2018-07-25T06:25:59.452Z,1010.11
2018-07-25T06:27:08.514Z,1010.11
2018-07-25T06:28:17.174Z,1010.12
2018-07-25T06:29:25.821Z,1010.12
2018-07-25T06:30:34.477Z,1010.09
2018-07-25T06:31:43.118Z,1010.09
2018-07-25T06:32:51.773Z,1010.14
2018-07-25T06:34:00.428Z,1010.15
2018-07-25T06:35:09.086Z,1010.15
2018-07-25T06:36:17.737Z,1010.16
2018-07-25T06:37:26.383Z,1010.17
2018-07-25T06:38:35.304Z,1010.15
2018-07-25T06:39:44.215Z,1010.16
2018-07-25T06:40:52.873Z,1010.19
2018-07-25T06:42:01.517Z,1010.16
2018-07-25T06:43:10.173Z,1010.2
2018-07-25T06:44:18.820Z,1010.21
2018-07-25T06:45:27.484Z,1010.2
2018-07-25T06:46:36.128Z,1010.22
2018-07-25T06:47:44.780Z,1010.24
2018-07-25T06:48:53.435Z,1010.24
2018-07-25T06:50:02.094Z,1010.29
2018-07-25T06:51:11.008Z,1010.28
2018-07-25T06:52:19.657Z,1010.25
2018-07-25T06:53:28.575Z,1010.25
2018-07-25T06:54:37.224Z,1010.25
2018-07-25T06:55:45.883Z,1010.19
2018-07-25T06:56:54.795Z,1010.18
2018-07-25T06:58:03.728Z,1010.2
2018-07-25T06:59:12.362Z,1010.22
2018-07-25T07:00:21.277Z,1010.23
2018-07-25T07:01:30.194Z,1010.2
2018-07-25T07:02:38.839Z,1010.21
2018-07-25T07:03:47.770Z,1010.25
2018-07-25T07:04:56.414Z,1010.25
2018-07-25T07:06:05.072Z,1010.26
2018-07-25T07:07:13.986Z,1010.29
2018-07-25T07:08:22.646Z,1010.32
2018-07-25T07:09:31.296Z,1010.3
2018-07-25T07:10:40.206Z,1010.28
2018-07-25T07:11:48.854Z,1010.32
2018-07-25T07:12:57.504Z,1010.33
2018-07-25T07:14:06.700Z,1010.3
2018-07-25T07:15:15.386Z,1010.36
2018-07-25T07:16:24.445Z,1010.36
2018-07-25T07:17:33.240Z,1010.37
2018-07-25T07:18:41.753Z,1010.4
2018-07-25T07:19:50.400Z,1010.41
2018-07-25T07:20:59.060Z,1010.39
2018-07-25T07:22:07.699Z,1010.41
2018-07-25T07:23:16.357Z,1010.39
2018-07-25T07:24:25.010Z,1010.39
2018-07-25T07:25:33.664Z,1010.38
2018-07-25T07:26:42.304Z,1010.39
2018-07-25T07:27:50.957Z,1010.4
2018-07-25T07:28:59.614Z,1010.36
2018-07-25T07:30:08.532Z,1010.37
2018-07-25T07:31:17.202Z,1010.41
2018-07-25T07:32:25.833Z,1010.36
2018-07-25T07:33:34.496Z,1010.37
2018-07-25T07:34:43.139Z,1010.35
2018-07-25T07:35:51.802Z,1010.34
2018-07-25T07:37:00.446Z,1010.33
2018-07-25T07:38:09.099Z,1010.32
2018-07-25T07:39:17.748Z,1010.35
2018-07-25T07:40:26.416Z,1010.36
2018-07-25T07:41:35.051Z,1010.32
2018-07-25T07:42:43.709Z,1010.3
2018-07-25T07:43:52.360Z,1010.34
2018-07-25T07:45:01.020Z,1010.35
2018-07-25T07:46:09.672Z,1010.37
2018-07-25T07:47:18.318Z,1010.34
2018-07-25T07:48:26.969Z,1010.35
2018-07-25T07:49:35.618Z,1010.38
2018-07-25T07:50:44.282Z,1010.35
2018-07-25T07:51:52.930Z,1010.4
2018-07-25T07:53:01.590Z,1010.4
2018-07-25T07:54:10.234Z,1010.38
2018-07-25T07:55:18.896Z,1010.38
2018-07-25T07:56:27.546Z,1010.43
2018-07-25T07:57:36.198Z,1010.39
2018-07-25T07:58:44.842Z,1010.4
2018-07-25T07:59:53.506Z,1010.38
2018-07-25T08:01:02.158Z,1010.39
2018-07-25T08:02:11.084Z,1010.38
2018-07-25T08:03:19.732Z,1010.37
2018-07-25T08:04:28.393Z,1010.35
2018-07-25T08:05:37.049Z,1010.37
2018-07-25T08:06:45.711Z,1010.39
2018-07-25T08:07:54.358Z,1010.42
2018-07-25T08:09:03.003Z,1010.41
2018-07-25T08:10:11.651Z,1010.4
2018-07-25T08:11:20.303Z,1010.44
2018-07-25T08:12:28.963Z,1010.43
2018-07-25T08:13:37.608Z,1010.5
2018-07-25T08:14:46.264Z,1010.48
2018-07-25T08:15:54.917Z,1010.44
2018-07-25T08:17:03.576Z,1010.48
2018-07-25T08:18:12.227Z,1010.48
2018-07-25T08:19:20.883Z,1010.51
2018-07-25T08:20:29.532Z,1010.5
2018-07-25T08:21:38.241Z,1010.46
2018-07-25T08:22:46.850Z,1010.46
2018-07-25T08:23:55.507Z,1010.47
2018-07-25T08:25:04.159Z,1010.49
2018-07-25T08:26:12.812Z,1010.49
2018-07-25T08:27:21.741Z,1010.49
2018-07-25T08:28:30.394Z,1010.49
2018-07-25T08:29:39.582Z,1010.47
2018-07-25T08:30:48.230Z,1010.5
2018-07-25T08:31:57.155Z,1010.5
2018-07-25T08:33:05.818Z,1010.5
2018-07-25T08:34:14.461Z,1010.49
2018-07-25T08:35:23.108Z,1010.45
2018-07-25T08:36:31.765Z,1010.48
2018-07-25T08:37:40.686Z,1010.44
2018-07-25T08:38:49.342Z,1010.42
2018-07-25T08:39:57.992Z,1010.39
2018-07-25T08:41:06.656Z,1010.44
2018-07-25T08:42:15.307Z,1010.41
2018-07-25T08:43:23.965Z,1010.42
2018-07-25T08:44:32.622Z,1010.42
2018-07-25T08:45:41.538Z,1010.43
2018-07-25T08:46:50.481Z,1010.44
2018-07-25T08:47:59.109Z,1010.41
2018-07-25T08:49:07.770Z,1010.46
2018-07-25T08:50:16.417Z,1010.39
2018-07-25T08:51:25.072Z,1010.41
2018-07-25T08:52:33.863Z,1010.4
2018-07-25T08:53:42.385Z,1010.44
2018-07-25T08:54:51.033Z,1010.39
2018-07-25T08:55:59.692Z,1010.39
2018-07-25T08:57:09.155Z,1010.41
2018-07-25T08:58:17.816Z,1010.45
2018-07-25T08:59:26.743Z,1010.43
2018-07-25T09:00:35.453Z,1010.42
2018-07-25T09:01:44.100Z,1010.47
2018-07-25T09:02:52.701Z,1010.43
2018-07-25T09:04:01.361Z,1010.45
2018-07-25T09:05:10.017Z,1010.44
2018-07-25T09:06:18.677Z,1010.4
2018-07-25T09:07:28.007Z,1010.42
2018-07-25T09:08:36.606Z,1010.43
2018-07-25T09:09:45.316Z,1010.42
2018-07-25T09:10:53.911Z,1010.44
2018-07-25T09:12:02.561Z,1010.46
2018-07-25T09:13:11.297Z,1010.46
2018-07-25T09:14:19.869Z,1010.45
2018-07-25T09:15:28.524Z,1010.41
2018-07-25T09:16:37.174Z,1010.4
2018-07-25T09:17:45.829Z,1010.39
2018-07-25T09:18:54.485Z,1010.41
2018-07-25T09:20:03.140Z,1010.43
2018-07-25T09:21:11.797Z,1010.38
2018-07-25T09:22:20.451Z,1010.4
2018-07-25T09:23:29.371Z,1010.39
2018-07-25T09:24:38.026Z,1010.38
2018-07-25T09:25:46.687Z,1010.38
2018-07-25T09:26:55.335Z,1010.38
2018-07-25T09:28:03.992Z,1010.41
2018-07-25T09:29:12.646Z,1010.41
2018-07-25T09:30:21.305Z,1010.46
2018-07-25T09:31:29.955Z,1010.47
2018-07-25T09:32:38.607Z,1010.47
2018-07-25T09:33:47.296Z,1010.43
2018-07-25T09:34:56.358Z,1010.43
2018-07-25T09:36:05.013Z,1010.45
2018-07-25T09:37:13.945Z,1010.49
2018-07-25T09:38:22.867Z,1010.47
2018-07-25T09:39:31.521Z,1010.47
2018-07-25T09:40:40.189Z,1010.42
2018-07-25T09:41:48.843Z,1010.43
2018-07-25T09:42:57.494Z,1010.46
2018-07-25T09:44:06.146Z,1010.48
2018-07-25T09:45:14.807Z,1010.49
2018-07-25T09:46:23.461Z,1010.45
2018-07-25T09:47:32.123Z,1010.43
2018-07-25T09:48:40.775Z,1010.41
2018-07-25T09:49:49.437Z,1010.41
2018-07-25T09:50:58.386Z,1010.42
2018-07-25T09:52:07.060Z,1010.42
2018-07-25T09:53:15.819Z,1010.39
2018-07-25T09:54:24.359Z,1010.42
2018-07-25T09:55:33.011Z,1010.39
2018-07-25T09:56:41.702Z,1010.34
2018-07-25T09:57:50.331Z,1010.38
2018-07-25T09:58:59.056Z,1010.37
2018-07-25T10:00:07.658Z,1010.37
2018-07-25T10:01:16.300Z,1010.4
2018-07-25T10:02:24.979Z,1010.39
2018-07-25T10:03:33.660Z,1010.37
2018-07-25T10:04:42.339Z,1010.35
2018-07-25T10:05:51.037Z,1010.37
2018-07-25T10:06:59.993Z,1010.37
2018-07-25T10:08:08.644Z,1010.39
2018-07-25T10:09:17.322Z,1010.4
2018-07-25T10:10:26.003Z,1010.35
2018-07-25T10:11:34.681Z,1010.35
2018-07-25T10:12:43.363Z,1010.4
2018-07-25T10:13:52.044Z,1010.35
2018-07-25T10:15:00.729Z,1010.35
2018-07-25T10:16:09.406Z,1010.33
2018-07-25T10:17:18.350Z,1010.32
2018-07-25T10:18:27.031Z,1010.27
2018-07-25T10:19:35.710Z,1010.29
2018-07-25T10:20:44.411Z,1010.29
2018-07-25T10:21:53.083Z,1010.27
2018-07-25T10:23:02.058Z,1010.25
2018-07-25T10:24:11.004Z,1010.28
2018-07-25T10:25:19.683Z,1010.27
2018-07-25T10:26:28.360Z,1010.26
2018-07-25T10:27:37.038Z,1010.24
2018-07-25T10:28:45.990Z,1010.22
2018-07-25T10:29:55.274Z,1010.18
2018-07-25T10:31:03.953Z,1010.22
2018-07-25T10:32:12.662Z,1010.21
2018-07-25T10:33:21.313Z,1010.22
2018-07-25T10:34:29.992Z,1010.19
2018-07-25T10:35:38.950Z,1010.15
2018-07-25T10:36:47.901Z,1010.13
2018-07-25T10:37:56.603Z,1010.16
2018-07-25T10:39:05.615Z,1010.18
2018-07-25T10:40:14.229Z,1010.2
2018-07-25T10:41:22.909Z,1010.2
2018-07-25T10:42:31.640Z,1010.2
2018-07-25T10:43:40.268Z,1010.13
2018-07-25T10:44:48.947Z,1010.12
2018-07-25T10:45:57.734Z,1010.1
2018-07-25T10:47:07.192Z,1010.13
2018-07-25T10:48:16.138Z,1010.14
2018-07-25T10:49:25.109Z,1010.12
2018-07-25T10:50:34.061Z,1010.11
2018-07-25T10:51:42.740Z,1010.11
2018-07-25T10:52:51.419Z,1010.11
2018-07-25T10:54:00.098Z,1010.07
2018-07-25T10:55:08.777Z,1010.09
2018-07-25T10:56:17.456Z,1010.15
2018-07-25T10:57:26.137Z,1010.1
2018-07-25T10:58:34.821Z,1010.08
2018-07-25T10:59:43.507Z,1010.08
2018-07-25T11:00:52.182Z,1010.1
2018-07-25T11:02:00.917Z,1010.1
2018-07-25T11:03:09.543Z,1010.08
2018-07-25T11:04:18.224Z,1010.07
2018-07-25T11:05:26.907Z,1010.06
2018-07-25T11:06:35.868Z,1010.02
2018-07-25T11:07:44.845Z,1010
2018-07-25T11:08:53.808Z,1010
2018-07-25T11:10:02.486Z,1009.98
2018-07-25T11:11:11.165Z,1010
2018-07-25T11:12:19.846Z,1010.06
2018-07-25T11:13:28.529Z,1010.03
2018-07-25T11:14:37.209Z,1009.99
2018-07-25T11:15:45.889Z,1009.99
2018-07-25T11:16:54.846Z,1010.03
2018-07-25T11:18:03.528Z,1010.04
2018-07-25T11:19:12.207Z,1010.01
2018-07-25T11:20:20.889Z,1009.99
2018-07-25T11:21:29.570Z,1010
2018-07-25T11:22:38.252Z,1009.96
2018-07-25T11:23:47.203Z,1009.98
2018-07-25T11:24:56.177Z,1009.94
2018-07-25T11:26:05.132Z,1009.96
2018-07-25T11:27:13.812Z,1009.97
2018-07-25T11:28:22.493Z,1009.96
2018-07-25T11:29:31.443Z,1009.97
2018-07-25T11:30:40.125Z,1009.95
2018-07-25T11:31:49.069Z,1009.97
2018-07-25T11:32:58.023Z,1009.95
2018-07-25T11:34:06.700Z,1009.93
2018-07-25T11:35:15.383Z,1009.96
2018-07-25T11:36:24.070Z,1009.97
2018-07-25T11:37:32.751Z,1009.97
2018-07-25T11:38:41.693Z,1009.95
2018-07-25T11:39:50.374Z,1009.95
2018-07-25T11:40:59.055Z,1009.94
2018-07-25T11:42:07.736Z,1009.93
2018-07-25T11:43:16.421Z,1009.91
2018-07-25T11:44:25.370Z,1009.91
2018-07-25T11:45:34.050Z,1009.89
2018-07-25T11:46:42.998Z,1009.89
2018-07-25T11:47:51.678Z,1009.85
2018-07-25T11:49:00.360Z,1009.84
2018-07-25T11:50:09.400Z,1009.87
2018-07-25T11:51:17.993Z,1009.87
2018-07-25T11:52:26.673Z,1009.87
2018-07-25T11:53:35.353Z,1009.82
2018-07-25T11:54:44.306Z,1009.85
2018-07-25T11:55:52.986Z,1009.81
2018-07-25T11:57:01.666Z,1009.77
2018-07-25T11:58:10.347Z,1009.74
2018-07-25T11:59:19.029Z,1009.77
2018-07-25T12:00:27.708Z,1009.8
2018-07-25T12:01:36.395Z,1009.78
2018-07-25T12:02:45.402Z,1009.78
2018-07-25T12:03:54.086Z,1009.78
2018-07-25T12:05:02.767Z,1009.75
2018-07-25T12:06:11.712Z,1009.75
2018-07-25T12:07:20.409Z,1009.73
2018-07-25T12:08:29.078Z,1009.74
2018-07-25T12:09:37.763Z,1009.68
2018-07-25T12:10:46.745Z,1009.7
2018-07-25T12:11:55.722Z,1009.66
2018-07-25T12:13:04.465Z,1009.67
2018-07-25T12:14:13.095Z,1009.68
2018-07-25T12:15:21.805Z,1009.66
2018-07-25T12:16:30.457Z,1009.68
2018-07-25T12:17:39.140Z,1009.68
2018-07-25T12:18:47.821Z,1009.64
2018-07-25T12:19:56.501Z,1009.71
2018-07-25T12:21:05.469Z,1009.7
2018-07-25T12:22:14.519Z,1009.71
2018-07-25T12:23:23.203Z,1009.65
2018-07-25T12:24:32.171Z,1009.61
2018-07-25T12:25:40.853Z,1009.62
2018-07-25T12:26:49.608Z,1009.67
2018-07-25T12:27:58.219Z,1009.58
2018-07-25T12:29:06.902Z,1009.6
2018-07-25T12:30:15.586Z,1009.61
2018-07-25T12:31:24.268Z,1009.62
2018-07-25T12:32:32.953Z,1009.62
2018-07-25T12:33:41.635Z,1009.61
2018-07-25T12:34:50.318Z,1009.62
2018-07-25T12:35:59.001Z,1009.59
2018-07-25T12:37:07.685Z,1009.59
2018-07-25T12:38:16.367Z,1009.59
2018-07-25T12:39:25.052Z,1009.61
2018-07-25T12:40:33.730Z,1009.61
2018-07-25T12:41:42.444Z,1009.58
2018-07-25T12:42:51.106Z,1009.62
2018-07-25T12:43:59.778Z,1009.57
2018-07-25T12:45:08.462Z,1009.6
2018-07-25T12:46:17.144Z,1009.57
2018-07-25T12:47:26.127Z,1009.52
2018-07-25T12:48:34.810Z,1009.54
2018-07-25T12:49:43.493Z,1009.51
2018-07-25T12:50:52.175Z,1009.53
2018-07-25T12:52:00.857Z,1009.54
2018-07-25T12:53:09.586Z,1009.5
2018-07-25T12:54:18.682Z,1009.5
2018-07-25T12:55:27.365Z,1009.47
2018-07-25T12:56:36.050Z,1009.42
2018-07-25T12:57:44.739Z,1009.42
2018-07-25T12:58:53.696Z,1009.41
2018-07-25T13:00:02.379Z,1009.39
2018-07-25T13:01:11.061Z,1009.39
2018-07-25T13:02:19.746Z,1009.37
2018-07-25T13:03:28.429Z,1009.32
2018-07-25T13:04:37.113Z,1009.31
2018-07-25T13:05:45.794Z,1009.33
2018-07-25T13:06:54.755Z,1009.37
2018-07-25T13:08:04.021Z,1009.4
2018-07-25T13:09:12.752Z,1009.39
2018-07-25T13:10:21.853Z,1009.39
2018-07-25T13:11:30.536Z,1009.4
2018-07-25T13:12:39.218Z,1009.39
2018-07-25T13:13:47.902Z,1009.41
2018-07-25T13:14:56.584Z,1009.39
2018-07-25T13:16:05.265Z,1009.42
2018-07-25T13:17:14.233Z,1009.39
2018-07-25T13:18:22.915Z,1009.38
2018-07-25T13:19:31.596Z,1009.39
2018-07-25T13:20:40.279Z,1009.35
2018-07-25T13:21:48.960Z,1009.35
2018-07-25T13:22:57.656Z,1009.3
2018-07-25T13:24:06.802Z,1009.35
2018-07-25T13:25:15.778Z,1009.29
2018-07-25T13:26:24.460Z,1009.3
2018-07-25T13:27:33.448Z,1009.29
2018-07-25T13:28:42.453Z,1009.28
2018-07-25T13:29:51.089Z,1009.28
2018-07-25T13:30:59.770Z,1009.28
2018-07-25T13:32:08.454Z,1009.26
2018-07-25T13:33:17.165Z,1009.22
2018-07-25T13:34:25.821Z,1009.2
2018-07-25T13:35:34.504Z,1009.18
2018-07-25T13:36:43.529Z,1009.23
2018-07-25T13:37:52.556Z,1009.22
2018-07-25T13:39:01.237Z,1009.25
2018-07-25T13:40:09.920Z,1009.23
2018-07-25T13:41:18.606Z,1009.28
2018-07-25T13:42:27.294Z,1009.23
2018-07-25T13:43:35.974Z,1009.24
2018-07-25T13:44:44.662Z,1009.27
2018-07-25T13:45:53.406Z,1009.23
2018-07-25T13:47:02.820Z,1009.26
2018-07-25T13:48:11.505Z,1009.2
2018-07-25T13:49:20.186Z,1009.24
2018-07-25T13:50:28.870Z,1009.22
2018-07-25T13:51:37.593Z,1009.23
2018-07-25T13:52:46.237Z,1009.19
2018-07-25T13:53:54.918Z,1009.22
2018-07-25T13:55:03.607Z,1009.16